sensor_id;sensor_type;location;lat;lon;timestamp;temperature;humidity
26479;DHT22;14163;-26.142;27.992;2024-01-25T00:00:34;26.00;99.90
26479;DHT22;14163;-26.142;27.992;2024-01-25T00:03:03;26.10;99.90
26479;DHT22;14163;-26.142;27.992;2024-01-25T00:05:34;26.10;99.90
26479;DHT22;14163;-26.142;27.992;2024-01-25T00:08:03;26.10;99.90
26479;DHT22;14163;-26.142;27.992;2024-01-25T00:10:32;26.10;99.90
26479;DHT22;14163;-26.142;27.992;2024-01-25T00:13:01;26.00;99.90
26479;DHT22;14163;-26.142;27.992;2024-01-25T00:15:31;25.90;99.90
26479;DHT22;14163;-26.142;27.992;2024-01-25T00:18:00;25.90;99.90
26479;DHT22;14163;-26.142;27.992;2024-01-25T00:20:29;25.80;99.90
26479;DHT22;14163;-26.142;27.992;2024-01-25T00:23:00;25.80;99.90
26479;DHT22;14163;-26.142;27.992;2024-01-25T00:25:29;25.80;99.90
26479;DHT22;14163;-26.142;27.992;2024-01-25T00:27:58;25.80;99.90
26479;DHT22;14163;-26.142;27.992;2024-01-25T00:30:27;25.80;99.90
26479;DHT22;14163;-26.142;27.992;2024-01-25T00:32:57;25.80;99.90
26479;DHT22;14163;-26.142;27.992;2024-01-25T00:35:27;25.80;99.90
26479;DHT22;14163;-26.142;27.992;2024-01-25T00:37:57;25.70;99.90
26479;DHT22;14163;-26.142;27.992;2024-01-25T00:40:29;25.70;99.90
26479;DHT22;14163;-26.142;27.992;2024-01-25T00:42:59;25.70;99.90
26479;DHT22;14163;-26.142;27.992;2024-01-25T00:45:28;25.60;99.90
26479;DHT22;14163;-26.142;27.992;2024-01-25T00:47:58;25.70;99.90
26479;DHT22;14163;-26.142;27.992;2024-01-25T00:50:28;25.80;99.90
26479;DHT22;14163;-26.142;27.992;2024-01-25T00:52:57;25.80;99.90
26479;DHT22;14163;-26.142;27.992;2024-01-25T00:55:29;25.70;99.90
26479;DHT22;14163;-26.142;27.992;2024-01-25T00:57:59;25.70;99.90
26479;DHT22;14163;-26.142;27.992;2024-01-25T01:00:28;25.70;99.90
26479;DHT22;14163;-26.142;27.992;2024-01-25T01:02:58;25.70;99.90
26479;DHT22;14163;-26.142;27.992;2024-01-25T01:05:29;25.70;99.90
26479;DHT22;14163;-26.142;27.992;2024-01-25T01:07:59;25.70;99.90
26479;DHT22;14163;-26.142;27.992;2024-01-25T01:10:30;25.60;99.90
26479;DHT22;14163;-26.142;27.992;2024-01-25T01:12:59;25.40;99.90
26479;DHT22;14163;-26.142;27.992;2024-01-25T01:15:28;25.20;99.90
26479;DHT22;14163;-26.142;27.992;2024-01-25T01:17:57;25.30;99.90
26479;DHT22;14163;-26.142;27.992;2024-01-25T01:20:26;25.30;99.90
26479;DHT22;14163;-26.142;27.992;2024-01-25T01:22:55;25.30;99.90
26479;DHT22;14163;-26.142;27.992;2024-01-25T01:25:24;25.30;99.90
26479;DHT22;14163;-26.142;27.992;2024-01-25T01:27:55;25.30;99.90
26479;DHT22;14163;-26.142;27.992;2024-01-25T01:30:24;25.20;99.90
26479;DHT22;14163;-26.142;27.992;2024-01-25T01:32:53;25.30;99.90
26479;DHT22;14163;-26.142;27.992;2024-01-25T01:35:22;25.30;99.90
26479;DHT22;14163;-26.142;27.992;2024-01-25T01:37:51;25.30;99.90
26479;DHT22;14163;-26.142;27.992;2024-01-25T01:40:20;25.30;99.90
26479;DHT22;14163;-26.142;27.992;2024-01-25T01:42:49;25.30;99.90
26479;DHT22;14163;-26.142;27.992;2024-01-25T01:45:20;25.30;99.90
26479;DHT22;14163;-26.142;27.992;2024-01-25T01:47:49;25.30;99.90
26479;DHT22;14163;-26.142;27.992;2024-01-25T01:50:19;25.30;99.90
26479;DHT22;14163;-26.142;27.992;2024-01-25T01:52:48;25.20;99.90
26479;DHT22;14163;-26.142;27.992;2024-01-25T01:55:18;25.10;99.90
26479;DHT22;14163;-26.142;27.992;2024-01-25T01:57:47;25.10;99.90
26479;DHT22;14163;-26.142;27.992;2024-01-25T02:00:17;25.00;99.90
26479;DHT22;14163;-26.142;27.992;2024-01-25T02:02:48;25.00;99.90
26479;DHT22;14163;-26.142;27.992;2024-01-25T02:05:17;25.00;99.90
26479;DHT22;14163;-26.142;27.992;2024-01-25T02:07:46;24.70;99.90
26479;DHT22;14163;-26.142;27.992;2024-01-25T02:10:15;24.70;99.90
26479;DHT22;14163;-26.142;27.992;2024-01-25T02:12:45;24.40;99.90
26479;DHT22;14163;-26.142;27.992;2024-01-25T02:15:14;24.20;99.90
26479;DHT22;14163;-26.142;27.992;2024-01-25T02:17:43;24.10;99.90
26479;DHT22;14163;-26.142;27.992;2024-01-25T02:20:14;24.10;99.90
26479;DHT22;14163;-26.142;27.992;2024-01-25T02:22:44;24.30;99.90
26479;DHT22;14163;-26.142;27.992;2024-01-25T02:25:13;24.30;99.90
26479;DHT22;14163;-26.142;27.992;2024-01-25T02:27:43;24.30;99.90
26479;DHT22;14163;-26.142;27.992;2024-01-25T02:30:12;24.40;99.90
26479;DHT22;14163;-26.142;27.992;2024-01-25T02:32:43;24.50;99.90
26479;DHT22;14163;-26.142;27.992;2024-01-25T02:35:12;24.60;99.90
26479;DHT22;14163;-26.142;27.992;2024-01-25T02:37:43;24.60;99.90
26479;DHT22;14163;-26.142;27.992;2024-01-25T02:40:13;24.50;99.90
26479;DHT22;14163;-26.142;27.992;2024-01-25T02:42:42;24.50;99.90
26479;DHT22;14163;-26.142;27.992;2024-01-25T02:45:11;24.30;99.90
26479;DHT22;14163;-26.142;27.992;2024-01-25T02:47:40;24.20;99.90
26479;DHT22;14163;-26.142;27.992;2024-01-25T02:50:10;24.00;99.90
26479;DHT22;14163;-26.142;27.992;2024-01-25T02:52:39;23.90;99.90
26479;DHT22;14163;-26.142;27.992;2024-01-25T02:55:10;23.80;99.90
26479;DHT22;14163;-26.142;27.992;2024-01-25T02:57:39;23.70;99.90
26479;DHT22;14163;-26.142;27.992;2024-01-25T03:00:09;23.60;99.90
26479;DHT22;14163;-26.142;27.992;2024-01-25T03:02:39;23.40;99.90
26479;DHT22;14163;-26.142;27.992;2024-01-25T03:05:08;23.30;99.90
26479;DHT22;14163;-26.142;27.992;2024-01-25T03:07:37;23.20;99.90
26479;DHT22;14163;-26.142;27.992;2024-01-25T03:10:09;23.00;99.90
26479;DHT22;14163;-26.142;27.992;2024-01-25T03:12:38;23.10;99.90
26479;DHT22;14163;-26.142;27.992;2024-01-25T03:15:08;23.20;99.90
26479;DHT22;14163;-26.142;27.992;2024-01-25T03:17:38;23.10;99.90
26479;DHT22;14163;-26.142;27.992;2024-01-25T03:20:08;23.00;99.90
26479;DHT22;14163;-26.142;27.992;2024-01-25T03:22:37;23.00;99.90
26479;DHT22;14163;-26.142;27.992;2024-01-25T03:25:09;23.10;99.90
26479;DHT22;14163;-26.142;27.992;2024-01-25T03:27:39;23.10;99.90
26479;DHT22;14163;-26.142;27.992;2024-01-25T03:30:09;23.10;99.90
26479;DHT22;14163;-26.142;27.992;2024-01-25T03:32:38;23.00;99.90
26479;DHT22;14163;-26.142;27.992;2024-01-25T03:35:08;23.10;99.90
26479;DHT22;14163;-26.142;27.992;2024-01-25T03:37:37;23.10;99.90
26479;DHT22;14163;-26.142;27.992;2024-01-25T03:40:09;23.10;99.90
26479;DHT22;14163;-26.142;27.992;2024-01-25T03:42:38;23.10;99.90
26479;DHT22;14163;-26.142;27.992;2024-01-25T03:45:08;22.90;99.90
26479;DHT22;14163;-26.142;27.992;2024-01-25T03:47:37;22.70;99.90
26479;DHT22;14163;-26.142;27.992;2024-01-25T03:50:07;22.60;99.90
26479;DHT22;14163;-26.142;27.992;2024-01-25T03:52:36;22.60;99.90
26479;DHT22;14163;-26.142;27.992;2024-01-25T03:55:06;22.80;99.90
26479;DHT22;14163;-26.142;27.992;2024-01-25T03:57:37;22.80;99.90
26479;DHT22;14163;-26.142;27.992;2024-01-25T04:00:08;22.90;99.90
26479;DHT22;14163;-26.142;27.992;2024-01-25T04:02:37;22.80;99.90
26479;DHT22;14163;-26.142;27.992;2024-01-25T04:05:07;23.00;99.90
26479;DHT22;14163;-26.142;27.992;2024-01-25T04:07:36;22.90;99.90
26479;DHT22;14163;-26.142;27.992;2024-01-25T04:10:06;22.70;99.90
26479;DHT22;14163;-26.142;27.992;2024-01-25T04:12:37;22.70;99.90
26479;DHT22;14163;-26.142;27.992;2024-01-25T04:15:07;22.80;99.90
26479;DHT22;14163;-26.142;27.992;2024-01-25T04:17:36;22.70;99.90
26479;DHT22;14163;-26.142;27.992;2024-01-25T04:20:06;22.70;99.90
26479;DHT22;14163;-26.142;27.992;2024-01-25T04:22:36;23.00;99.90
26479;DHT22;14163;-26.142;27.992;2024-01-25T04:25:05;23.20;99.90
26479;DHT22;14163;-26.142;27.992;2024-01-25T04:27:36;23.30;99.90
26479;DHT22;14163;-26.142;27.992;2024-01-25T04:30:06;23.30;99.90
26479;DHT22;14163;-26.142;27.992;2024-01-25T04:32:36;23.50;99.90
26479;DHT22;14163;-26.142;27.992;2024-01-25T04:35:06;23.50;99.90
26479;DHT22;14163;-26.142;27.992;2024-01-25T04:37:36;23.60;99.90
26479;DHT22;14163;-26.142;27.992;2024-01-25T04:40:07;23.60;99.90
26479;DHT22;14163;-26.142;27.992;2024-01-25T04:42:38;23.40;99.90
26479;DHT22;14163;-26.142;27.992;2024-01-25T04:45:08;23.10;99.90
26479;DHT22;14163;-26.142;27.992;2024-01-25T04:47:38;22.90;99.90
26479;DHT22;14163;-26.142;27.992;2024-01-25T04:50:08;22.80;99.90
26479;DHT22;14163;-26.142;27.992;2024-01-25T04:52:37;23.00;99.90
26479;DHT22;14163;-26.142;27.992;2024-01-25T04:55:06;22.80;99.90
26479;DHT22;14163;-26.142;27.992;2024-01-25T04:57:37;22.70;99.90
26479;DHT22;14163;-26.142;27.992;2024-01-25T05:00:07;22.70;99.90
26479;DHT22;14163;-26.142;27.992;2024-01-25T05:02:37;22.60;99.90
26479;DHT22;14163;-26.142;27.992;2024-01-25T05:05:06;22.70;99.90
26479;DHT22;14163;-26.142;27.992;2024-01-25T05:07:35;22.70;99.90
26479;DHT22;14163;-26.142;27.992;2024-01-25T05:10:04;22.60;99.90
26479;DHT22;14163;-26.142;27.992;2024-01-25T05:12:36;22.60;99.90
26479;DHT22;14163;-26.142;27.992;2024-01-25T05:15:06;22.70;99.90
26479;DHT22;14163;-26.142;27.992;2024-01-25T05:17:35;22.50;99.90
26479;DHT22;14163;-26.142;27.992;2024-01-25T05:20:05;22.80;99.90
26479;DHT22;14163;-26.142;27.992;2024-01-25T05:22:34;23.00;99.90
26479;DHT22;14163;-26.142;27.992;2024-01-25T05:25:07;23.20;99.90
26479;DHT22;14163;-26.142;27.992;2024-01-25T05:27:38;23.10;99.90
26479;DHT22;14163;-26.142;27.992;2024-01-25T05:30:08;23.10;99.90
26479;DHT22;14163;-26.142;27.992;2024-01-25T05:32:37;22.90;99.90
26479;DHT22;14163;-26.142;27.992;2024-01-25T05:35:08;22.70;99.90
26479;DHT22;14163;-26.142;27.992;2024-01-25T05:37:37;22.60;99.90
26479;DHT22;14163;-26.142;27.992;2024-01-25T05:40:07;22.80;99.90
26479;DHT22;14163;-26.142;27.992;2024-01-25T05:42:39;22.70;99.90
26479;DHT22;14163;-26.142;27.992;2024-01-25T05:45:08;22.70;99.90
26479;DHT22;14163;-26.142;27.992;2024-01-25T05:47:38;22.70;99.90
26479;DHT22;14163;-26.142;27.992;2024-01-25T05:50:07;22.50;99.90
26479;DHT22;14163;-26.142;27.992;2024-01-25T05:52:36;22.70;99.90
26479;DHT22;14163;-26.142;27.992;2024-01-25T05:55:06;23.00;99.90
26479;DHT22;14163;-26.142;27.992;2024-01-25T05:57:36;23.00;99.90
26479;DHT22;14163;-26.142;27.992;2024-01-25T06:00:08;23.00;99.90
26479;DHT22;14163;-26.142;27.992;2024-01-25T06:02:39;23.20;99.90
26479;DHT22;14163;-26.142;27.992;2024-01-25T06:05:08;23.30;99.90
26479;DHT22;14163;-26.142;27.992;2024-01-25T06:07:37;23.00;99.90
26479;DHT22;14163;-26.142;27.992;2024-01-25T06:10:08;22.80;99.90
26479;DHT22;14163;-26.142;27.992;2024-01-25T06:12:37;22.70;99.90
26479;DHT22;14163;-26.142;27.992;2024-01-25T06:15:09;22.90;99.90
26479;DHT22;14163;-26.142;27.992;2024-01-25T06:17:38;23.00;99.90
26479;DHT22;14163;-26.142;27.992;2024-01-25T06:20:08;23.20;99.90
26479;DHT22;14163;-26.142;27.992;2024-01-25T06:22:37;23.10;99.90
26479;DHT22;14163;-26.142;27.992;2024-01-25T06:25:07;23.00;99.90
26479;DHT22;14163;-26.142;27.992;2024-01-25T06:27:36;23.10;99.90
26479;DHT22;14163;-26.142;27.992;2024-01-25T06:30:08;23.20;99.90
26479;DHT22;14163;-26.142;27.992;2024-01-25T06:32:37;23.30;99.90
26479;DHT22;14163;-26.142;27.992;2024-01-25T06:35:07;23.20;99.90
26479;DHT22;14163;-26.142;27.992;2024-01-25T06:37:36;23.30;99.90
26479;DHT22;14163;-26.142;27.992;2024-01-25T06:40:06;23.60;99.90
26479;DHT22;14163;-26.142;27.992;2024-01-25T06:42:36;23.50;99.90
26479;DHT22;14163;-26.142;27.992;2024-01-25T06:45:07;23.50;99.90
26479;DHT22;14163;-26.142;27.992;2024-01-25T06:47:36;23.50;99.90
26479;DHT22;14163;-26.142;27.992;2024-01-25T06:50:06;23.60;99.90
26479;DHT22;14163;-26.142;27.992;2024-01-25T06:52:35;23.70;99.90
26479;DHT22;14163;-26.142;27.992;2024-01-25T06:55:05;23.80;99.90
26479;DHT22;14163;-26.142;27.992;2024-01-25T06:57:34;23.80;99.90
26479;DHT22;14163;-26.142;27.992;2024-01-25T07:00:04;23.80;99.90
26479;DHT22;14163;-26.142;27.992;2024-01-25T07:02:35;23.90;99.90
26479;DHT22;14163;-26.142;27.992;2024-01-25T07:05:05;23.90;99.90
26479;DHT22;14163;-26.142;27.992;2024-01-25T07:07:34;23.50;99.90
26479;DHT22;14163;-26.142;27.992;2024-01-25T07:10:05;23.40;99.90
26479;DHT22;14163;-26.142;27.992;2024-01-25T07:12:35;23.60;99.90
26479;DHT22;14163;-26.142;27.992;2024-01-25T07:15:04;23.70;99.90
26479;DHT22;14163;-26.142;27.992;2024-01-25T07:17:36;23.90;99.90
26479;DHT22;14163;-26.142;27.992;2024-01-25T07:20:06;24.00;99.90
26479;DHT22;14163;-26.142;27.992;2024-01-25T07:22:36;24.10;99.90
26479;DHT22;14163;-26.142;27.992;2024-01-25T07:25:05;24.10;99.90
26479;DHT22;14163;-26.142;27.992;2024-01-25T07:27:35;24.20;99.90
26479;DHT22;14163;-26.142;27.992;2024-01-25T07:30:04;24.30;99.90
26479;DHT22;14163;-26.142;27.992;2024-01-25T07:32:35;24.40;99.90
26479;DHT22;14163;-26.142;27.992;2024-01-25T07:35:06;24.60;99.90
26479;DHT22;14163;-26.142;27.992;2024-01-25T07:37:36;24.60;99.90
26479;DHT22;14163;-26.142;27.992;2024-01-25T07:40:04;24.70;99.90
26479;DHT22;14163;-26.142;27.992;2024-01-25T07:42:34;24.60;99.90
26479;DHT22;14163;-26.142;27.992;2024-01-25T07:45:03;24.60;99.90
26479;DHT22;14163;-26.142;27.992;2024-01-25T07:47:32;24.50;99.90
26479;DHT22;14163;-26.142;27.992;2024-01-25T07:50:03;24.40;99.90
26479;DHT22;14163;-26.142;27.992;2024-01-25T07:52:33;24.50;99.90
26479;DHT22;14163;-26.142;27.992;2024-01-25T07:55:02;24.50;99.90
26479;DHT22;14163;-26.142;27.992;2024-01-25T07:57:31;24.80;99.90
26479;DHT22;14163;-26.142;27.992;2024-01-25T08:00:00;24.80;99.90
26479;DHT22;14163;-26.142;27.992;2024-01-25T08:02:29;25.10;99.90
26479;DHT22;14163;-26.142;27.992;2024-01-25T08:04:58;25.40;99.90
26479;DHT22;14163;-26.142;27.992;2024-01-25T08:07:29;25.50;99.90
26479;DHT22;14163;-26.142;27.992;2024-01-25T08:09:58;25.50;99.90
26479;DHT22;14163;-26.142;27.992;2024-01-25T08:12:27;25.40;99.90
26479;DHT22;14163;-26.142;27.992;2024-01-25T08:14:56;25.40;99.90
26479;DHT22;14163;-26.142;27.992;2024-01-25T08:17:25;25.30;99.90
26479;DHT22;14163;-26.142;27.992;2024-01-25T08:19:54;25.50;99.90
26479;DHT22;14163;-26.142;27.992;2024-01-25T08:22:24;25.60;99.90
26479;DHT22;14163;-26.142;27.992;2024-01-25T08:24:54;25.50;99.90
26479;DHT22;14163;-26.142;27.992;2024-01-25T08:27:23;25.70;99.90
26479;DHT22;14163;-26.142;27.992;2024-01-25T08:29:52;25.80;99.90
26479;DHT22;14163;-26.142;27.992;2024-01-25T08:32:22;25.80;99.90
26479;DHT22;14163;-26.142;27.992;2024-01-25T08:34:51;25.80;99.90
26479;DHT22;14163;-26.142;27.992;2024-01-25T08:37:20;25.80;99.90
26479;DHT22;14163;-26.142;27.992;2024-01-25T08:39:49;25.90;99.90
26479;DHT22;14163;-26.142;27.992;2024-01-25T08:42:20;25.90;99.90
26479;DHT22;14163;-26.142;27.992;2024-01-25T08:44:49;26.00;99.90
26479;DHT22;14163;-26.142;27.992;2024-01-25T08:47:18;25.80;99.90
26479;DHT22;14163;-26.142;27.992;2024-01-25T08:49:47;25.80;99.90
26479;DHT22;14163;-26.142;27.992;2024-01-25T08:52:16;25.90;99.90
26479;DHT22;14163;-26.142;27.992;2024-01-25T08:54:46;26.10;99.90
26479;DHT22;14163;-26.142;27.992;2024-01-25T08:57:15;26.10;99.90
26479;DHT22;14163;-26.142;27.992;2024-01-25T08:59:46;26.20;99.90
26479;DHT22;14163;-26.142;27.992;2024-01-25T09:02:15;25.90;99.90
26479;DHT22;14163;-26.142;27.992;2024-01-25T09:04:44;26.10;99.90
26479;DHT22;14163;-26.142;27.992;2024-01-25T09:07:13;26.30;99.90
26479;DHT22;14163;-26.142;27.992;2024-01-25T09:09:42;26.50;99.90
26479;DHT22;14163;-26.142;27.992;2024-01-25T09:12:11;26.60;99.90
26479;DHT22;14163;-26.142;27.992;2024-01-25T09:14:41;26.70;99.90
26479;DHT22;14163;-26.142;27.992;2024-01-25T09:17:11;26.80;99.90
26479;DHT22;14163;-26.142;27.992;2024-01-25T09:19:42;26.90;99.90
26479;DHT22;14163;-26.142;27.992;2024-01-25T09:22:12;27.00;99.90
26479;DHT22;14163;-26.142;27.992;2024-01-25T09:24:43;27.10;99.90
26479;DHT22;14163;-26.142;27.992;2024-01-25T09:27:13;26.80;99.90
26479;DHT22;14163;-26.142;27.992;2024-01-25T09:29:42;26.80;99.90
26479;DHT22;14163;-26.142;27.992;2024-01-25T09:32:13;26.50;99.90
26479;DHT22;14163;-26.142;27.992;2024-01-25T09:34:42;26.50;99.90
26479;DHT22;14163;-26.142;27.992;2024-01-25T09:37:11;26.60;99.90
26479;DHT22;14163;-26.142;27.992;2024-01-25T09:39:41;26.70;99.90
26479;DHT22;14163;-26.142;27.992;2024-01-25T09:42:11;26.70;99.90
26479;DHT22;14163;-26.142;27.992;2024-01-25T09:44:41;26.80;99.90
26479;DHT22;14163;-26.142;27.992;2024-01-25T09:47:10;27.00;99.90
26479;DHT22;14163;-26.142;27.992;2024-01-25T09:49:42;27.00;99.90
26479;DHT22;14163;-26.142;27.992;2024-01-25T09:52:12;26.90;99.90
26479;DHT22;14163;-26.142;27.992;2024-01-25T09:54:42;26.80;99.90
26479;DHT22;14163;-26.142;27.992;2024-01-25T09:57:14;27.10;99.90
26479;DHT22;14163;-26.142;27.992;2024-01-25T09:59:45;27.20;99.90
26479;DHT22;14163;-26.142;27.992;2024-01-25T10:02:14;27.30;99.90
26479;DHT22;14163;-26.142;27.992;2024-01-25T10:04:49;27.20;99.90
26479;DHT22;14163;-26.142;27.992;2024-01-25T10:07:36;27.30;99.90
26479;DHT22;14163;-26.142;27.992;2024-01-25T10:10:06;27.50;99.90
26479;DHT22;14163;-26.142;27.992;2024-01-25T10:12:36;27.60;99.90
26479;DHT22;14163;-26.142;27.992;2024-01-25T10:15:06;27.60;99.90
26479;DHT22;14163;-26.142;27.992;2024-01-25T10:17:35;27.50;99.90
26479;DHT22;14163;-26.142;27.992;2024-01-25T10:20:08;27.70;99.90
26479;DHT22;14163;-26.142;27.992;2024-01-25T10:22:38;27.70;99.90
26479;DHT22;14163;-26.142;27.992;2024-01-25T10:25:12;27.60;99.90
26479;DHT22;14163;-26.142;27.992;2024-01-25T10:27:42;27.30;99.90
26479;DHT22;14163;-26.142;27.992;2024-01-25T10:30:13;27.30;99.90
26479;DHT22;14163;-26.142;27.992;2024-01-25T10:32:43;27.20;99.90
26479;DHT22;14163;-26.142;27.992;2024-01-25T10:35:15;27.50;99.90
26479;DHT22;14163;-26.142;27.992;2024-01-25T10:37:45;27.60;99.90
26479;DHT22;14163;-26.142;27.992;2024-01-25T10:40:15;27.70;99.90
26479;DHT22;14163;-26.142;27.992;2024-01-25T10:42:46;27.80;99.90
26479;DHT22;14163;-26.142;27.992;2024-01-25T10:45:16;27.90;99.90
26479;DHT22;14163;-26.142;27.992;2024-01-25T10:47:49;28.10;99.90
26479;DHT22;14163;-26.142;27.992;2024-01-25T10:50:20;28.30;99.90
26479;DHT22;14163;-26.142;27.992;2024-01-25T10:52:49;28.50;99.90
26479;DHT22;14163;-26.142;27.992;2024-01-25T10:55:18;28.60;99.90
26479;DHT22;14163;-26.142;27.992;2024-01-25T10:57:48;28.50;99.90
26479;DHT22;14163;-26.142;27.992;2024-01-25T11:00:17;28.50;99.90
26479;DHT22;14163;-26.142;27.992;2024-01-25T11:02:46;28.50;99.90
26479;DHT22;14163;-26.142;27.992;2024-01-25T11:05:18;28.60;99.90
26479;DHT22;14163;-26.142;27.992;2024-01-25T11:07:48;28.70;99.90
26479;DHT22;14163;-26.142;27.992;2024-01-25T11:10:18;28.80;99.90
26479;DHT22;14163;-26.142;27.992;2024-01-25T11:12:49;28.80;99.90
26479;DHT22;14163;-26.142;27.992;2024-01-25T11:15:21;28.70;99.90
26479;DHT22;14163;-26.142;27.992;2024-01-25T11:17:54;28.90;99.90
26479;DHT22;14163;-26.142;27.992;2024-01-25T11:20:26;28.90;99.90
26479;DHT22;14163;-26.142;27.992;2024-01-25T11:22:58;28.90;99.90
26479;DHT22;14163;-26.142;27.992;2024-01-25T11:25:28;28.90;99.90
26479;DHT22;14163;-26.142;27.992;2024-01-25T11:27:58;29.00;99.90
26479;DHT22;14163;-26.142;27.992;2024-01-25T11:30:29;29.20;99.90
26479;DHT22;14163;-26.142;27.992;2024-01-25T11:32:58;29.30;99.90
26479;DHT22;14163;-26.142;27.992;2024-01-25T11:35:29;29.50;99.90
26479;DHT22;14163;-26.142;27.992;2024-01-25T11:37:58;29.70;99.90
26479;DHT22;14163;-26.142;27.992;2024-01-25T11:40:28;29.60;99.90
26479;DHT22;14163;-26.142;27.992;2024-01-25T11:42:58;29.60;99.90
26479;DHT22;14163;-26.142;27.992;2024-01-25T11:45:27;29.70;99.90
26479;DHT22;14163;-26.142;27.992;2024-01-25T11:47:56;29.70;99.90
26479;DHT22;14163;-26.142;27.992;2024-01-25T11:50:25;29.70;99.90
26479;DHT22;14163;-26.142;27.992;2024-01-25T11:52:58;29.70;99.90
26479;DHT22;14163;-26.142;27.992;2024-01-25T11:55:27;29.60;99.90
26479;DHT22;14163;-26.142;27.992;2024-01-25T11:57:56;29.70;99.90
26479;DHT22;14163;-26.142;27.992;2024-01-25T12:00:26;29.80;99.90
26479;DHT22;14163;-26.142;27.992;2024-01-25T12:02:55;30.00;99.90
26479;DHT22;14163;-26.142;27.992;2024-01-25T12:05:24;30.10;99.90
26479;DHT22;14163;-26.142;27.992;2024-01-25T12:07:54;30.20;99.90
26479;DHT22;14163;-26.142;27.992;2024-01-25T12:10:25;30.40;99.90
26479;DHT22;14163;-26.142;27.992;2024-01-25T12:12:56;30.60;99.90
26479;DHT22;14163;-26.142;27.992;2024-01-25T12:15:25;30.70;99.90
26479;DHT22;14163;-26.142;27.992;2024-01-25T12:17:54;30.80;99.90
26479;DHT22;14163;-26.142;27.992;2024-01-25T12:20:24;30.80;99.90
26479;DHT22;14163;-26.142;27.992;2024-01-25T12:22:53;31.10;99.90
26479;DHT22;14163;-26.142;27.992;2024-01-25T12:25:22;31.40;99.90
26479;DHT22;14163;-26.142;27.992;2024-01-25T12:27:54;31.90;99.90
26479;DHT22;14163;-26.142;27.992;2024-01-25T12:30:23;32.30;99.90
26479;DHT22;14163;-26.142;27.992;2024-01-25T12:32:52;32.60;99.90
26479;DHT22;14163;-26.142;27.992;2024-01-25T12:35:21;33.20;99.90
26479;DHT22;14163;-26.142;27.992;2024-01-25T12:37:50;33.70;99.90
26479;DHT22;14163;-26.142;27.992;2024-01-25T12:40:19;34.10;99.90
26479;DHT22;14163;-26.142;27.992;2024-01-25T12:42:48;34.50;99.90
26479;DHT22;14163;-26.142;27.992;2024-01-25T12:45:19;34.70;99.90
26479;DHT22;14163;-26.142;27.992;2024-01-25T12:47:48;34.70;99.50
26479;DHT22;14163;-26.142;27.992;2024-01-25T12:50:17;34.70;99.40
26479;DHT22;14163;-26.142;27.992;2024-01-25T12:52:46;34.40;99.90
26479;DHT22;14163;-26.142;27.992;2024-01-25T12:55:16;33.80;99.90
26479;DHT22;14163;-26.142;27.992;2024-01-25T12:57:45;33.00;99.90
26479;DHT22;14163;-26.142;27.992;2024-01-25T13:00:15;32.50;99.90
26479;DHT22;14163;-26.142;27.992;2024-01-25T13:02:46;32.10;99.90
26479;DHT22;14163;-26.142;27.992;2024-01-25T13:05:15;32.00;99.90
26479;DHT22;14163;-26.142;27.992;2024-01-25T13:07:44;31.70;99.90
26479;DHT22;14163;-26.142;27.992;2024-01-25T13:10:14;31.60;99.90
26479;DHT22;14163;-26.142;27.992;2024-01-25T13:12:43;31.60;99.90
26479;DHT22;14163;-26.142;27.992;2024-01-25T13:15:13;31.60;99.90
26479;DHT22;14163;-26.142;27.992;2024-01-25T13:17:42;31.50;99.90
26479;DHT22;14163;-26.142;27.992;2024-01-25T13:20:13;31.30;99.90
26479;DHT22;14163;-26.142;27.992;2024-01-25T13:22:42;31.10;99.90
26479;DHT22;14163;-26.142;27.992;2024-01-25T13:25:11;31.00;99.90
26479;DHT22;14163;-26.142;27.992;2024-01-25T13:27:41;30.90;99.90
26479;DHT22;14163;-26.142;27.992;2024-01-25T13:30:11;30.80;99.90
26479;DHT22;14163;-26.142;27.992;2024-01-25T13:32:41;30.70;99.90
26479;DHT22;14163;-26.142;27.992;2024-01-25T13:35:11;30.70;99.90
26479;DHT22;14163;-26.142;27.992;2024-01-25T13:37:41;30.60;99.90
26479;DHT22;14163;-26.142;27.992;2024-01-25T13:40:10;30.50;99.90
26479;DHT22;14163;-26.142;27.992;2024-01-25T13:42:39;30.60;99.90
26479;DHT22;14163;-26.142;27.992;2024-01-25T13:45:09;30.60;99.90
26479;DHT22;14163;-26.142;27.992;2024-01-25T13:47:38;30.60;99.90
26479;DHT22;14163;-26.142;27.992;2024-01-25T13:50:07;30.60;99.90
26479;DHT22;14163;-26.142;27.992;2024-01-25T13:52:38;30.70;99.90
26479;DHT22;14163;-26.142;27.992;2024-01-25T13:55:08;30.90;99.90
26479;DHT22;14163;-26.142;27.992;2024-01-25T13:57:37;31.00;99.90
26479;DHT22;14163;-26.142;27.992;2024-01-25T14:00:07;31.00;99.90
26479;DHT22;14163;-26.142;27.992;2024-01-25T14:02:37;31.10;99.90
26479;DHT22;14163;-26.142;27.992;2024-01-25T14:05:06;31.10;99.90
26479;DHT22;14163;-26.142;27.992;2024-01-25T14:07:37;31.00;99.90
26479;DHT22;14163;-26.142;27.992;2024-01-25T14:10:07;31.00;99.90
26479;DHT22;14163;-26.142;27.992;2024-01-25T14:12:36;30.90;99.90
26479;DHT22;14163;-26.142;27.992;2024-01-25T14:15:06;30.90;99.90
26479;DHT22;14163;-26.142;27.992;2024-01-25T14:17:35;30.90;99.90
26479;DHT22;14163;-26.142;27.992;2024-01-25T14:20:05;30.80;99.90
26479;DHT22;14163;-26.142;27.992;2024-01-25T14:22:37;30.70;99.90
26479;DHT22;14163;-26.142;27.992;2024-01-25T14:25:06;30.80;99.90
26479;DHT22;14163;-26.142;27.992;2024-01-25T14:27:35;30.90;99.90
26479;DHT22;14163;-26.142;27.992;2024-01-25T14:30:05;31.00;99.90
26479;DHT22;14163;-26.142;27.992;2024-01-25T14:32:35;31.10;99.90
26479;DHT22;14163;-26.142;27.992;2024-01-25T14:35:05;31.10;99.90
26479;DHT22;14163;-26.142;27.992;2024-01-25T14:37:34;31.20;99.90
26479;DHT22;14163;-26.142;27.992;2024-01-25T14:40:06;31.40;99.90
26479;DHT22;14163;-26.142;27.992;2024-01-25T14:42:35;31.30;99.90
26479;DHT22;14163;-26.142;27.992;2024-01-25T14:45:06;31.40;99.90
26479;DHT22;14163;-26.142;27.992;2024-01-25T14:47:35;31.10;99.90
26479;DHT22;14163;-26.142;27.992;2024-01-25T14:50:05;30.80;99.90
26479;DHT22;14163;-26.142;27.992;2024-01-25T14:52:34;30.80;99.90
26479;DHT22;14163;-26.142;27.992;2024-01-25T14:55:06;30.80;99.90
26479;DHT22;14163;-26.142;27.992;2024-01-25T14:57:35;30.90;99.90
26479;DHT22;14163;-26.142;27.992;2024-01-25T15:00:05;30.90;99.90
26479;DHT22;14163;-26.142;27.992;2024-01-25T15:02:34;31.00;99.90
26479;DHT22;14163;-26.142;27.992;2024-01-25T15:05:04;31.00;99.90
26479;DHT22;14163;-26.142;27.992;2024-01-25T15:07:33;31.00;99.90
26479;DHT22;14163;-26.142;27.992;2024-01-25T15:10:05;30.90;99.90
26479;DHT22;14163;-26.142;27.992;2024-01-25T15:12:34;30.70;99.90
26479;DHT22;14163;-26.142;27.992;2024-01-25T15:15:03;30.50;99.90
26479;DHT22;14163;-26.142;27.992;2024-01-25T15:17:32;30.00;99.90